Time;durP1;ratioP1;P1;durP2;ratioP2;P2;SDS_P1;SDS_P2;PMS_P1;PMS_P2;Temp;Humidity;BMP_temperature;BMP_pressure;BME280_temperature;BME280_humidity;BME280_pressure;Samples;Min_cycle;Max_cycle;Signal;HPM_P1;HPM_P2
2022/12/18 00:02:01;;;;;;;220.98;123.00;;;;;;;13.97;76.45;99116.25;4944466;28;20098;-61
2022/12/18 00:04:50;;;;;;;216.18;128.93;;;;;;;13.84;76.66;99118.03;4946173;29;20058;-61
2022/12/18 00:07:32;;;;;;;209.48;125.03;;;;;;;13.81;76.63;99118.47;4944735;28;20516;-61
2022/12/18 00:10:21;;;;;;;217.25;126.88;;;;;;;13.76;76.86;99121.06;4944948;29;20043;-61
2022/12/18 00:13:03;;;;;;;217.85;125.07;;;;;;;13.69;77.57;99123.00;4950095;28;20046;-61
2022/12/18 00:15:52;;;;;;;213.65;125.60;;;;;;;13.82;77.19;99122.84;4949670;28;20146;-61
2022/12/18 00:18:42;;;;;;;201.40;122.57;;;;;;;13.83;76.59;99127.22;4946838;28;20047;-61
2022/12/18 00:21:25;;;;;;;213.32;126.32;;;;;;;13.84;76.70;99125.31;4944346;29;20043;-62
2022/12/18 00:24:14;;;;;;;213.35;121.53;;;;;;;13.85;76.82;99127.81;4944206;28;20044;-61
2022/12/18 00:26:56;;;;;;;205.18;121.43;;;;;;;13.81;76.82;99126.56;4943428;29;20070;-61
2022/12/18 00:29:51;;;;;;;212.18;124.53;;;;;;;13.74;76.60;99120.47;4945148;29;20055;-61
2022/12/18 00:32:40;;;;;;;214.50;124.90;;;;;;;13.71;76.45;99118.19;4944839;28;21070;-61
2022/12/18 00:35:32;;;;;;;204.00;120.32;;;;;;;13.67;76.90;99122.41;4945214;28;20062;-61
2022/12/18 00:38:14;;;;;;;200.95;119.88;;;;;;;13.56;76.72;99125.84;4945162;29;20047;-61
2022/12/18 00:41:03;;;;;;;214.98;122.53;;;;;;;13.70;77.05;99127.34;4927241;28;20059;-60
2022/12/18 00:43:46;;;;;;;206.60;119.78;;;;;;;13.71;76.39;99124.41;4945340;28;20106;-61
2022/12/18 00:46:35;;;;;;;214.30;121.97;;;;;;;13.61;75.95;99123.31;4944920;28;20051;-61
2022/12/18 00:49:17;;;;;;;222.30;120.60;;;;;;;13.46;76.47;99129.03;4944719;29;20122;-61
2022/12/18 00:52:06;;;;;;;209.05;117.80;;;;;;;13.58;76.91;99129.94;4947085;28;20047;-61
2022/12/18 00:54:48;;;;;;;205.88;119.53;;;;;;;13.74;76.67;99136.66;4943432;29;20047;-61
2022/12/18 00:57:42;;;;;;;212.15;121.47;;;;;;;13.58;76.38;99140.72;4928453;29;20535;-61
2022/12/18 01:00:24;;;;;;;204.90;121.53;;;;;;;13.62;77.04;99130.31;4944190;28;20051;-60
2022/12/18 01:03:23;;;;;;;217.48;121.43;;;;;;;13.68;76.99;99135.66;4942405;29;20467;-59
2022/12/18 01:05:59;;;;;;;219.20;124.05;;;;;;;13.69;76.41;99141.88;4946105;29;20557;-59
2022/12/18 01:08:54;;;;;;;225.93;128.37;;;;;;;13.63;75.81;99142.78;4943484;29;20475;-60
2022/12/18 01:11:30;;;;;;;207.93;119.28;;;;;;;13.45;76.50;99141.72;4944127;28;20059;-58
2022/12/18 01:14:19;;;;;;;207.77;119.10;;;;;;;13.54;76.77;99144.09;4948472;29;20055;-59
2022/12/18 01:17:03;;;;;;;200.32;116.72;;;;;;;13.52;75.94;99137.06;4949138;28;20057;-59
2022/12/18 01:19:58;;;;;;;213.38;119.82;;;;;;;13.47;77.15;99147.69;4930630;29;20057;-59
2022/12/18 01:22:33;;;;;;;205.27;121.22;;;;;;;13.62;76.41;99157.28;4949575;28;20062;-58
2022/12/18 01:25:22;;;;;;;208.45;121.43;;;;;;;13.63;76.36;99158.94;4948649;28;20574;-61
2022/12/18 01:28:04;;;;;;;207.20;121.40;;;;;;;13.64;75.97;99165.97;4950685;28;20079;-59
2022/12/18 01:30:53;;;;;;;205.77;118.65;;;;;;;13.72;76.19;99168.41;4947736;29;20050;-59
2022/12/18 01:33:35;;;;;;;202.48;117.97;;;;;;;13.74;75.53;99169.00;4950419;28;20094;-61
2022/12/18 01:36:27;;;;;;;198.15;117.90;;;;;;;13.69;75.71;99169.66;4950270;28;20051;-61
2022/12/18 01:39:17;;;;;;;204.95;117.43;;;;;;;13.55;76.20;99178.09;4948577;28;20058;-60
2022/12/18 01:42:21;;;;;;;201.73;116.60;;;;;;;13.44;76.74;99176.97;4951815;28;20062;-59
2022/12/18 01:45:04;;;;;;;193.27;115.68;;;;;;;13.43;77.38;99181.53;4948126;29;20542;-59
2022/12/18 01:48:04;;;;;;;202.43;116.60;;;;;;;13.45;76.84;99184.84;4948147;28;20470;-60
2022/12/18 01:50:43;;;;;;;202.48;119.80;;;;;;;13.34;76.84;99188.25;4948627;28;20122;-59
2022/12/18 01:53:33;;;;;;;199.00;115.22;;;;;;;13.29;77.29;99180.78;4955278;28;20429;-59
2022/12/18 01:56:25;;;;;;;211.07;117.15;;;;;;;13.32;77.19;99184.97;4948976;28;20145;-58
2022/12/18 01:59:11;;;;;;;210.02;119.30;;;;;;;13.29;77.20;99188.88;4919192;29;20051;-59
2022/12/18 02:02:00;;;;;;;204.93;117.43;;;;;;;13.29;77.86;99202.34;4950175;28;20051;-59
2022/12/18 02:04:55;;;;;;;200.88;117.18;;;;;;;13.39;77.15;99203.75;4948351;29;20585;-61
2022/12/18 02:07:45;;;;;;;200.07;118.10;;;;;;;13.23;77.79;99207.81;4947012;29;20419;-61
2022/12/18 02:11:11;;;;;;;192.98;114.93;;;;;;;13.25;77.85;99216.50;4926723;29;20138;-59
2022/12/18 02:14:01;;;;;;;205.75;117.22;;;;;;;13.04;77.64;99223.88;4947917;28;20058;-60
2022/12/18 02:17:08;;;;;;;204.68;117.22;;;;;;;13.15;77.98;99226.94;4949461;28;20184;-60
2022/12/18 02:20:02;;;;;;;203.35;115.75;;;;;;;13.25;77.28;99221.88;4948501;28;20043;-59
2022/12/18 02:23:17;;;;;;;197.63;115.15;;;;;;;13.32;77.59;99225.38;4947964;28;20683;-62
2022/12/18 02:26:05;;;;;;;209.40;119.10;;;;;;;13.32;76.76;99223.50;4946532;29;20047;-62
2022/12/18 02:29:12;;;;;;;208.27;118.75;;;;;;;13.35;77.28;99222.25;4945327;28;20149;-62
2022/12/18 02:31:57;;;;;;;209.57;117.72;;;;;;;13.41;77.24;99225.94;4947467;28;20051;-63
2022/12/18 02:34:56;;;;;;;196.40;117.10;;;;;;;13.36;77.56;99223.09;4947119;28;20059;-62
2022/12/18 02:37:34;;;;;;;215.00;118.25;;;;;;;13.31;77.62;99231.81;4944413;28;20047;-62
2022/12/18 02:40:26;;;;;;;212.40;119.28;;;;;;;13.29;77.59;99242.78;4946307;29;20059;-62
2022/12/18 02:43:22;;;;;;;206.23;117.18;;;;;;;13.42;77.76;99249.97;4914403;29;20128;-62
2022/12/18 02:46:29;;;;;;;214.82;119.05;;;;;;;13.66;77.36;99250.19;4947694;28;20070;-61
2022/12/18 02:49:36;;;;;;;207.25;119.10;;;;;;;13.71;77.38;99258.44;4947339;28;20058;-61
2022/12/18 02:52:23;;;;;;;204.77;121.20;;;;;;;13.69;77.59;99250.56;4927980;29;20051;-62
2022/12/18 02:55:50;;;;;;;200.15;118.75;;;;;;;13.85;77.77;99254.59;4926060;28;20058;-62
2022/12/18 02:58:40;;;;;;;208.07;119.47;;;;;;;13.84;77.67;99263.72;4936406;28;20058;-62
2022/12/18 03:01:58;;;;;;;203.93;118.57;;;;;;;13.94;77.49;99267.81;4929837;29;20439;-62
2022/12/18 03:04:51;;;;;;;210.82;119.63;;;;;;;14.04;77.92;99278.91;4941775;28;20058;-62
2022/12/18 03:07:50;;;;;;;207.68;119.53;;;;;;;14.14;77.32;99284.63;4949265;28;20859;-62
2022/12/18 03:10:43;;;;;;;211.10;122.03;;;;;;;14.36;77.14;99285.00;4946372;29;20086;-62
2022/12/18 03:13:59;;;;;;;206.75;121.65;;;;;;;14.83;75.09;99284.50;4947061;28;20554;-61
2022/12/18 03:16:59;;;;;;;211.35;121.15;;;;;;;14.74;75.33;99283.16;4930958;29;20043;-62
2022/12/18 03:19:35;;;;;;;219.07;128.52;;;;;;;14.85;75.29;99293.19;4947796;28;20055;-62
2022/12/18 03:22:33;;;;;;;211.02;123.13;;;;;;;14.92;75.64;99299.31;4945660;28;20060;-62
2022/12/18 03:25:20;;;;;;;227.15;131.00;;;;;;;15.00;nan;99309.84;4945483;28;20093;-61
2022/12/18 03:28:16;;;;;;;237.13;136.20;;;;;;;15.23;73.86;99303.69;4925166;29;20051;-63
2022/12/18 03:31:08;;;;;;;243.85;135.05;;;;;;;15.36;73.60;99302.69;4946180;29;20043;-62
2022/12/18 03:34:16;;;;;;;232.27;132.20;;;;;;;15.72;72.74;99314.41;4949980;28;20724;-63
2022/12/18 03:37:09;;;;;;;239.23;136.57;;;;;;;16.12;71.18;99316.47;4944511;28;20801;-64
2022/12/18 03:39:59;;;;;;;225.65;129.75;;;;;;;16.39;70.39;99315.97;4929925;29;20491;-63
2022/12/18 03:42:58;;;;;;;213.02;127.13;;;;;;;16.85;70.70;99322.41;4928775;29;20059;-63
2022/12/18 03:45:58;;;;;;;213.23;130.88;;;;;;;17.21;69.37;99333.94;4943358;28;20126;-63
2022/12/18 03:48:57;;;;;;;201.90;127.50;;;;;;;17.65;67.72;99334.22;4947694;28;20051;-62
2022/12/18 03:51:58;;;;;;;207.30;125.32;;;;;;;17.95;66.64;99338.53;4943241;28;20414;-63
2022/12/18 03:54:43;;;;;;;209.45;128.10;;;;;;;18.35;66.21;99338.34;4945884;28;20114;-63
2022/12/18 03:57:37;;;;;;;213.52;126.28;;;;;;;18.49;66.38;99344.22;4963213;28;20089;-62
2022/12/18 04:00:20;;;;;;;207.52;126.95;;;;;;;18.83;65.10;99341.47;4963288;28;20846;-63
2022/12/18 04:03:16;;;;;;;210.32;127.97;;;;;;;19.04;65.63;99344.44;4947416;28;20046;-62
2022/12/18 04:06:11;;;;;;;216.65;128.30;;;;;;;19.28;64.74;99345.81;4966883;28;20125;-62
2022/12/18 04:09:01;;;;;;;221.10;128.82;;;;;;;19.41;63.61;99349.19;4945393;28;20170;-61
2022/12/18 04:11:47;;;;;;;192.23;126.70;;;;;;;20.06;62.63;99356.38;4945472;28;20115;-61
2022/12/18 04:14:37;;;;;;;218.00;131.70;;;;;;;20.34;59.59;99351.66;4965565;28;20062;-60
2022/12/18 04:17:26;;;;;;;218.43;133.10;;;;;;;20.49;59.09;99351.72;4963860;28;20068;-61
2022/12/18 04:20:09;;;;;;;217.95;133.68;;;;;;;20.64;60.60;99356.50;4963987;28;20697;-62
2022/12/18 04:22:58;;;;;;;212.60;132.65;;;;;;;20.66;54.60;99362.50;4964342;28;20149;-62
2022/12/18 04:25:47;;;;;;;218.25;132.13;;;;;;;20.84;54.68;99355.75;4966667;28;20057;-61
2022/12/18 04:28:44;;;;;;;212.23;126.55;;;;;;;20.98;54.41;99367.03;4962290;28;20065;-61
2022/12/18 04:31:34;;;;;;;183.85;116.53;;;;;;;21.09;53.07;99363.25;4948807;28;20108;-61
2022/12/18 04:34:16;;;;;;;192.77;121.47;;;;;;;21.08;55.04;99360.78;4937486;28;20066;-62
2022/12/18 04:37:05;;;;;;;198.30;124.05;;;;;;;20.68;54.52;99360.31;4945785;28;20123;-62
2022/12/18 04:39:47;;;;;;;208.95;125.90;;;;;;;20.88;53.42;99361.50;4942877;29;20047;-61
2022/12/18 04:42:45;;;;;;;179.35;113.30;;;;;;;20.89;53.28;99363.97;4945600;28;20047;-62
2022/12/18 04:45:27;;;;;;;181.50;115.03;;;;;;;20.71;54.43;99361.69;4949451;28;20058;-62
2022/12/18 04:48:16;;;;;;;185.10;116.47;;;;;;;20.58;55.71;99367.59;4944246;28;20290;-61
2022/12/18 04:50:58;;;;;;;184.55;116.63;;;;;;;20.64;54.29;99361.13;4944159;29;20071;-61
2022/12/18 04:53:47;;;;;;;185.45;112.80;;;;;;;20.47;53.54;99370.25;4943749;28;20134;-61
2022/12/18 04:56:31;;;;;;;182.13;110.95;;;;;;;20.51;53.98;99362.38;4964722;28;20043;-61
2022/12/18 04:59:20;;;;;;;186.05;116.18;;;;;;;20.50;56.13;99356.13;4963958;28;20046;-61
2022/12/18 05:02:03;;;;;;;199.13;117.20;;;;;;;20.47;55.38;99355.81;4962528;28;20078;-60
2022/12/18 05:04:52;;;;;;;187.60;116.32;;;;;;;20.26;54.03;99361.13;4961269;28;20986;-61
2022/12/18 05:07:34;;;;;;;193.77;118.03;;;;;;;20.63;53.74;99364.94;4963791;28;20058;-61
2022/12/18 05:10:23;;;;;;;191.70;110.47;;;;;;;20.57;52.93;99360.50;4961700;28;20071;-61
2022/12/18 05:13:05;;;;;;;166.23;99.03;;;;;;;20.29;52.65;99357.88;4964661;28;20197;-61
2022/12/18 05:15:59;;;;;;;173.23;105.88;;;;;;;20.22;55.31;99360.00;4965023;28;20175;-61
2022/12/18 05:18:41;;;;;;;172.65;104.95;;;;;;;19.99;54.14;99361.22;4963674;28;20121;-61
2022/12/18 05:21:30;;;;;;;174.15;99.60;;;;;;;19.78;53.83;99364.84;4962849;28;20066;-61
2022/12/18 05:24:12;;;;;;;168.77;102.18;;;;;;;20.30;53.70;99362.25;4963102;28;20050;-61
2022/12/18 05:27:01;;;;;;;169.52;98.70;;;;;;;20.61;54.08;99358.94;4964846;28;20055;-61
2022/12/18 05:29:43;;;;;;;162.82;96.32;;;;;;;20.68;54.74;99356.78;4940960;28;20571;-61
2022/12/18 05:32:32;;;;;;;146.63;91.47;;;;;;;20.66;54.54;99350.78;4964055;28;20070;-61
2022/12/18 05:35:20;;;;;;;146.00;86.72;;;;;;;20.64;51.43;99350.22;4926718;28;20039;-61
2022/12/18 05:38:17;;;;;;;164.10;91.32;;;;;;;20.75;55.73;99341.00;4907678;29;20059;-62
2022/12/18 05:40:53;;;;;;;143.93;85.18;;;;;;;20.58;50.60;99341.16;4932565;29;20078;-63
2022/12/18 05:43:42;;;;;;;140.48;79.55;;;;;;;20.80;49.73;99343.75;4926928;29;20047;-63
2022/12/18 05:46:25;;;;;;;150.00;88.28;;;;;;;21.11;52.41;99339.25;4914547;29;20446;-63
2022/12/18 05:49:14;;;;;;;142.20;87.28;;;;;;;21.28;53.51;99335.44;4925820;29;20071;-63
2022/12/18 05:52:03;;;;;;;159.20;95.53;;;;;;;21.49;49.65;99339.88;4930131;29;20779;-62
2022/12/18 05:54:46;;;;;;;141.77;88.35;;;;;;;22.23;48.41;99336.91;4929661;29;20178;-64
2022/12/18 05:57:35;;;;;;;145.30;89.32;;;;;;;22.21;48.98;99334.44;4921674;29;20071;-62
2022/12/18 06:00:17;;;;;;;146.10;87.28;;;;;;;22.10;49.64;99325.44;4927202;29;20048;-61
2022/12/18 06:03:06;;;;;;;161.95;97.85;;;;;;;22.10;50.14;99321.88;4928507;29;20055;-62
2022/12/18 06:05:48;;;;;;;185.25;110.57;;;;;;;22.14;49.17;99320.22;4927911;29;20103;-62
2022/12/18 06:08:37;;;;;;;193.20;117.18;;;;;;;22.37;49.51;99320.78;4925888;29;20044;-62
2022/12/18 06:11:27;;;;;;;190.18;114.38;;;;;;;22.71;49.61;99309.19;4929257;29;20122;-62
2022/12/18 06:14:17;;;;;;;186.98;111.95;;;;;;;22.41;49.42;99317.22;4927251;29;20135;-62
2022/12/18 06:17:12;;;;;;;188.15;114.45;;;;;;;22.42;48.37;99318.84;4929479;29;20048;-62
2022/12/18 06:19:47;;;;;;;194.73;114.65;;;;;;;22.76;48.34;99315.47;4929512;29;20060;-63
2022/12/18 06:22:36;;;;;;;198.60;117.20;;;;;;;22.74;52.42;99301.25;4928736;29;20047;-63
2022/12/18 06:25:19;;;;;;;236.65;131.73;;;;;;;22.69;48.59;99301.25;5377001;23;20022;-58
2022/12/18 06:28:29;;;;;;;236.70;131.13;;;;;;;22.81;47.78;99299.00;4983449;28;20050;-54
2022/12/18 06:31:11;;;;;;;225.20;124.32;;;;;;;;;;4981013;28;20050;-57
2022/12/18 06:34:09;;;;;;;221.73;123.75;;;;;;;22.58;49.15;99291.44;4984690;28;20050;-57
2022/12/18 06:36:45;;;;;;;216.10;120.00;;;;;;;22.95;48.65;99281.97;4985198;28;20153;-55
2022/12/18 06:39:34;;;;;;;215.33;118.70;;;;;;;22.96;48.29;99276.22;4976446;28;20393;-56
2022/12/18 06:42:23;;;;;;;209.38;118.88;;;;;;;22.89;48.66;99273.00;4986963;28;20061;-56
2022/12/18 06:45:05;;;;;;;202.43;115.68;;;;;;;22.70;47.05;99270.09;4981401;28;20056;-53
2022/12/18 06:47:54;;;;;;;203.98;114.32;;;;;;;23.02;48.76;99263.34;4984824;28;20047;-59
2022/12/18 06:50:37;;;;;;;202.15;116.43;;;;;;;22.47;48.83;99255.13;4969083;28;20057;-56
2022/12/18 06:53:26;;;;;;;187.90;114.38;;;;;;;22.64;47.15;99252.03;4985782;28;20350;-57
2022/12/18 06:56:21;;;;;;;185.60;111.53;;;;;;;22.56;47.31;99252.63;4985339;28;20054;-56
2022/12/18 06:58:57;;;;;;;181.18;107.35;;;;;;;22.91;47.55;99248.06;4987254;28;20508;-57
2022/12/18 07:01:53;;;;;;;188.93;106.22;;;;;;;22.50;46.54;99248.28;4982670;28;20054;-57
2022/12/18 07:04:30;;;;;;;177.63;103.43;;;;;;;22.83;47.91;99235.78;4975640;28;20134;-57
2022/12/18 07:07:20;;;;;;;169.32;95.97;;;;;;;22.98;47.08;99232.16;4992489;28;20626;-58
2022/12/18 07:10:10;;;;;;;158.25;92.78;;;;;;;22.98;48.10;99226.69;4991312;28;20054;-58
2022/12/18 07:13:05;;;;;;;163.35;93.40;;;;;;;22.94;46.15;99226.41;4976456;28;20048;-57
2022/12/18 07:15:40;;;;;;;163.02;91.53;;;;;;;23.22;46.28;99224.91;4984569;28;20170;-56
2022/12/18 07:18:29;;;;;;;162.38;92.25;;;;;;;23.17;49.08;99218.66;4987793;28;20089;-59
2022/12/18 07:21:17;;;;;;;168.55;92.78;;;;;;;22.38;46.72;99213.84;4986061;28;20074;-55
2022/12/18 07:24:13;;;;;;;175.07;95.60;;;;;;;22.75;47.21;99206.28;4985767;28;20050;-57
2022/12/18 07:26:55;;;;;;;162.82;95.82;;;;;;;23.06;48.56;99196.81;4977773;28;20541;-57
2022/12/18 07:29:44;;;;;;;160.95;95.40;;;;;;;23.06;48.33;99198.72;4996535;28;20050;-57
2022/12/18 07:32:39;;;;;;;161.77;96.60;;;;;;;23.02;46.78;99189.41;4984132;28;20061;-57
2022/12/18 07:35:14;;;;;;;168.45;96.47;;;;;;;23.15;47.92;99183.34;4985557;28;20054;-59
2022/12/18 07:38:05;;;;;;;165.65;94.35;;;;;;;23.33;47.76;99184.56;4982796;28;20050;-58
2022/12/18 07:40:47;;;;;;;159.52;98.43;;;;;;;22.98;46.58;99177.41;4971555;28;20046;-60
2022/12/18 07:43:43;;;;;;;158.45;95.70;;;;;;;23.17;46.63;99169.38;4984525;28;20518;-57
2022/12/18 07:46:18;;;;;;;163.95;95.53;;;;;;;23.30;47.76;99167.91;4981907;28;20046;-57
2022/12/18 07:49:08;;;;;;;151.40;92.47;;;;;;;22.79;47.33;99167.13;4981675;28;20389;-59
2022/12/18 07:51:50;;;;;;;163.63;90.10;;;;;;;23.11;47.43;99165.84;4981159;28;20058;-57
2022/12/18 07:54:40;;;;;;;162.07;94.25;;;;;;;22.94;46.59;99166.22;4978887;28;20046;-59
2022/12/18 07:57:23;;;;;;;163.82;95.03;;;;;;;22.47;47.64;99160.22;4976565;28;20057;-58
2022/12/18 08:00:37;;;;;;;164.88;92.57;;;;;;;22.91;47.07;99155.00;4977473;28;20043;-55
2022/12/18 08:03:16;;;;;;;167.20;96.32;;;;;;;22.61;47.10;99156.84;4978345;28;20178;-56
2022/12/18 08:06:07;;;;;;;169.50;97.15;;;;;;;22.85;46.66;99149.59;4977578;28;20100;-56
2022/12/18 08:09:01;;;;;;;171.07;95.43;;;;;;;23.09;46.70;99142.59;4980007;28;20065;-53
2022/12/18 08:11:50;;;;;;;171.90;96.65;;;;;;;23.23;46.72;99141.66;4635222;28;9999656;-59
2022/12/18 08:14:39;;;;;;;170.93;97.97;;;;;;;22.61;46.45;99135.78;4954573;28;20241;-56
2022/12/18 08:17:21;;;;;;;172.43;98.68;;;;;;;23.14;47.82;99129.69;4952967;28;20042;-55
2022/12/18 08:20:14;;;;;;;167.63;96.72;;;;;;;23.21;48.55;99123.88;4980889;28;20055;-58
2022/12/18 08:22:57;;;;;;;168.80;98.25;;;;;;;23.30;49.00;99113.13;4981406;28;20061;-56
2022/12/18 08:25:54;;;;;;;182.70;100.45;;;;;;;23.31;47.33;99118.31;4633210;28;10000225;-54
2022/12/18 08:28:43;;;;;;;179.85;100.85;;;;;;;23.09;46.55;99115.22;4969705;28;20046;-56
2022/12/18 08:31:26;;;;;;;185.73;103.03;;;;;;;22.96;47.10;99105.72;4981808;28;20232;-58
2022/12/18 08:34:15;;;;;;;185.88;103.85;;;;;;;23.09;47.51;99101.53;4983427;28;20583;-57
2022/12/18 08:36:57;;;;;;;178.48;104.60;;;;;;;23.16;47.31;99102.00;4979770;28;20502;-57
2022/12/18 08:39:46;;;;;;;186.68;103.93;;;;;;;22.96;47.11;99108.44;4984608;28;20054;-58
2022/12/18 08:45:35;;;;;;;177.63;100.30;;;;;;;23.31;46.90;99103.78;4986366;28;20124;-54
2022/12/18 08:48:17;;;;;;;185.80;100.65;;;;;;;23.35;46.60;99096.63;4990164;28;20046;-58
2022/12/18 08:51:06;;;;;;;193.57;104.60;;;;;;;23.27;46.07;99089.84;4989612;28;20046;-57
2022/12/18 08:53:49;;;;;;;186.75;103.28;;;;;;;23.21;46.95;99099.22;4982715;28;20607;-58
2022/12/18 08:56:38;;;;;;;174.48;101.03;;;;;;;23.29;47.35;99087.66;4981196;28;20042;-59
2022/12/18 08:59:27;;;;;;;178.43;103.43;;;;;;;23.21;48.42;99086.34;4965382;28;20497;-58
2022/12/18 09:02:11;;;;;;;183.38;105.35;;;;;;;23.24;49.50;99082.25;4986545;28;20705;-59
2022/12/18 09:05:00;;;;;;;206.70;112.38;;;;;;;22.92;46.60;99080.03;4972767;28;20046;-59
2022/12/18 09:07:42;;;;;;;184.50;107.57;;;;;;;23.26;47.97;99077.28;4982235;28;20602;-59
2022/12/18 09:10:31;;;;;;;188.57;105.93;;;;;;;23.23;48.25;99077.84;4981803;28;20057;-58
2022/12/18 09:13:17;;;;;;;209.40;115.72;;;;;;;23.20;48.43;99071.03;4980765;28;20050;-61
2022/12/18 09:16:06;;;;;;;224.60;119.47;;;;;;;23.17;47.57;99068.88;4983381;28;20072;-60
2022/12/18 09:18:48;;;;;;;217.43;118.85;;;;;;;22.93;47.21;99062.50;4981475;28;20106;-61
2022/12/18 09:21:40;;;;;;;217.63;118.75;;;;;;;23.05;48.75;99073.91;4980355;28;20050;-59
2022/12/18 09:24:28;;;;;;;220.77;119.60;;;;;;;23.21;48.55;99077.31;4982301;28;20062;-59
2022/12/18 09:27:23;;;;;;;211.68;117.13;;;;;;;23.16;49.41;99069.16;4970327;28;20054;-60
2022/12/18 09:29:58;;;;;;;221.43;121.15;;;;;;;23.16;49.79;99064.50;4964770;28;20125;-60
2022/12/18 09:32:55;;;;;;;208.55;119.22;;;;;;;23.12;49.38;99066.19;4928170;28;20054;-61
2022/12/18 09:35:30;;;;;;;266.88;140.02;;;;;;;22.78;47.56;99058.78;4962146;28;20051;-59
2022/12/18 09:38:27;;;;;;;268.33;139.43;;;;;;;23.03;48.14;99059.72;4943947;28;20048;-60
2022/12/18 09:41:25;;;;;;;269.83;140.95;;;;;;;22.94;48.84;99058.66;4964526;28;20126;-60
2022/12/18 09:44:32;;;;;;;279.95;139.02;;;;;;;22.86;47.76;99055.44;4959368;28;20046;-60
2022/12/18 09:47:17;;;;;;;253.45;135.15;;;;;;;22.75;49.77;99053.06;4962636;28;20046;-59
2022/12/18 09:50:24;;;;;;;274.20;135.98;;;;;;;22.91;48.84;99057.31;4961990;28;20050;-58
2022/12/18 09:53:22;;;;;;;251.13;132.48;;;;;;;22.87;51.33;99046.13;4965596;28;20047;-58
2022/12/18 09:56:05;;;;;;;244.85;129.55;;;;;;;22.56;49.15;99050.19;4967154;28;20051;-60
2022/12/18 09:59:06;;;;;;;255.70;131.15;;;;;;;22.79;51.05;99046.72;4964344;28;20055;-60
2022/12/18 10:01:48;;;;;;;246.15;131.57;;;;;;;22.76;51.65;99041.84;4944099;28;20652;-57
2022/12/18 10:04:39;;;;;;;239.52;128.52;;;;;;;22.73;51.07;99047.88;4943032;28;20060;-55
2022/12/18 10:07:39;;;;;;;232.38;123.38;;;;;;;22.66;50.85;99039.16;4957612;28;20051;-60
2022/12/18 10:10:31;;;;;;;219.43;121.18;;;;;;;22.57;50.46;99032.69;4950372;28;20105;-56
2022/12/18 10:13:22;;;;;;;227.48;120.10;;;;;;;22.63;51.43;99035.09;4952351;28;20095;-59
2022/12/18 10:16:23;;;;;;;226.98;121.72;;;;;;;22.51;54.24;99031.09;4962530;28;20082;-55
2022/12/18 10:19:14;;;;;;;204.73;115.30;;;;;;;22.57;51.30;99029.97;4958803;28;20574;-52
2022/12/18 10:22:03;;;;;;;204.48;113.88;;;;;;;22.54;52.22;99030.53;4961054;28;20433;-57
2022/12/18 10:25:19;;;;;;;214.65;110.22;;;;;;;22.55;49.79;99040.38;4956947;28;20118;-55
2022/12/18 10:28:21;;;;;;;205.70;110.47;;;;;;;22.48;52.54;99035.22;4978495;28;20042;-57
2022/12/18 10:30:56;;;;;;;192.27;105.85;;;;;;;22.40;51.93;99033.91;4983598;28;20524;-57
2022/12/18 10:33:53;;;;;;;197.98;104.50;;;;;;;22.56;51.29;99039.25;4981942;28;20050;-57
2022/12/18 10:36:29;;;;;;;197.77;109.13;;;;;;;22.35;53.04;99033.94;4983416;28;20046;-58
2022/12/18 10:39:31;;;;;;;197.35;103.13;;;;;;;22.32;51.36;99034.50;4979530;28;20043;-61
2022/12/18 10:42:19;;;;;;;191.95;105.07;;;;;;;22.26;55.25;99031.00;4980742;28;20066;-60
2022/12/18 10:45:23;;;;;;;182.68;105.95;;;;;;;22.03;57.09;99035.19;4981750;28;20138;-61
2022/12/18 10:47:58;;;;;;;212.43;104.47;;;;;;;21.96;56.56;99026.50;4983450;28;20054;-60
2022/12/18 10:50:51;;;;;;;198.95;109.43;;;;;;;21.86;58.10;99019.16;4982859;28;20116;-57
2022/12/18 10:54:09;;;;;;;198.50;104.00;;;;;;;21.76;58.00;99015.66;4969652;28;20058;-57
2022/12/18 10:57:25;;;;;;;183.57;105.00;;;;;;;21.66;58.20;99017.31;4982946;28;20050;-57
2022/12/18 11:00:27;;;;;;;211.18;104.80;;;;;;;21.54;59.12;99016.84;4980071;28;20046;-59
2022/12/18 11:03:42;;;;;;;190.35;104.20;;;;;;;21.47;59.74;99019.03;4978886;28;20118;-56
2022/12/18 11:06:24;;;;;;;196.60;104.28;;;;;;;21.38;60.36;99016.06;4290446;28;10000428;-62
2022/12/18 11:09:29;;;;;;;189.65;106.18;;;;;;;21.25;60.81;99016.63;4976972;28;20105;-60
2022/12/18 11:12:20;;;;;;;189.43;105.55;;;;;;;21.10;61.65;99020.22;4974515;28;20149;-59
2022/12/18 11:15:19;;;;;;;184.35;105.55;;;;;;;21.05;62.21;99017.47;4972491;28;20074;-62
2022/12/18 11:18:02;;;;;;;207.07;110.13;;;;;;;20.93;62.71;99015.84;4946851;28;20386;-57
2022/12/18 11:21:09;;;;;;;188.43;103.50;;;;;;;20.88;62.65;99004.13;4977223;28;20389;-53
2022/12/18 11:24:00;;;;;;;199.98;102.65;;;;;;;20.77;63.02;99003.34;4979487;28;20125;-58
2022/12/18 11:26:56;;;;;;;189.32;104.97;;;;;;;20.64;62.91;98996.53;4980720;28;20042;-56
2022/12/18 11:29:38;;;;;;;182.98;101.07;;;;;;;20.63;63.55;98999.50;4963933;28;20521;-60
2022/12/18 11:32:43;;;;;;;184.23;100.47;;;;;;;20.51;63.86;98992.38;4981835;28;20053;-57
2022/12/18 11:35:51;;;;;;;185.50;102.50;;;;;;;20.41;63.92;98991.59;4978387;28;20563;-58
2022/12/18 11:38:42;;;;;;;176.10;99.05;;;;;;;20.26;64.05;98985.00;4982774;28;20173;-54
2022/12/18 11:45:19;;;;;;;191.90;103.85;;;;;;;20.06;64.83;98983.09;4982544;28;20069;-55
2022/12/18 11:48:14;;;;;;;193.68;106.53;;;;;;;19.87;65.38;98993.66;4983522;28;20066;-54
2022/12/18 11:51:21;;;;;;;214.88;110.32;;;;;;;19.82;65.12;98988.19;4967744;28;20046;-59
2022/12/18 11:54:01;;;;;;;213.83;110.90;;;;;;;19.67;65.02;99001.72;4982146;28;20088;-57
2022/12/18 11:57:17;;;;;;;211.90;110.87;;;;;;;19.73;64.54;98984.34;4981693;28;20763;-57
2022/12/18 12:00:05;;;;;;;199.35;108.60;;;;;;;19.65;65.06;98990.28;4982387;28;20296;-59
2022/12/18 12:03:06;;;;;;;;;;;;;;;19.47;66.09;98986.97;4981923;28;20052;-58
2022/12/18 12:05:54;;;;;;;193.82;105.90;;;;;;;19.35;66.52;98997.22;4981585;28;19941;-58
2022/12/18 12:09:28;;;;;;;200.60;109.18;;;;;;;19.23;65.54;98993.91;4981776;28;20072;-60
2022/12/18 12:12:47;;;;;;;202.13;105.22;;;;;;;19.19;66.20;98988.19;4920227;29;20047;-53
2022/12/18 12:15:40;;;;;;;204.43;108.00;;;;;;;19.19;65.52;98987.38;4981852;28;20069;-54
2022/12/18 12:18:44;;;;;;;213.18;109.65;;;;;;;19.16;66.43;98988.69;4984846;28;20155;-53
2022/12/18 12:21:42;;;;;;;202.45;108.32;;;;;;;19.08;67.36;98991.91;4982343;28;20137;-52
2022/12/18 12:24:46;;;;;;;210.15;110.28;;;;;;;18.97;68.50;98991.88;4967529;28;20073;-55
2022/12/18 12:27:51;;;;;;;;;;;;;;;19.17;66.84;98995.78;4952456;28;20468;-58
2022/12/18 12:30:56;;;;;;;210.27;109.43;;;;;;;19.18;66.81;98997.41;4984502;28;20039;-53
2022/12/18 12:34:05;;;;;;;196.48;108.55;;;;;;;19.12;67.31;99010.16;4980223;28;20062;-54
2022/12/18 12:36:53;;;;;;;210.83;113.43;;;;;;;18.96;68.26;99000.28;4978489;28;20054;-58
2022/12/18 12:39:53;;;;;;;216.57;111.88;;;;;;;18.91;68.06;99003.78;4984720;28;20367;-55
2022/12/18 12:46:02;;;;;;;208.73;111.00;;;;;;;18.64;68.23;99008.44;4978914;28;20136;-59
2022/12/18 12:49:01;;;;;;;208.23;107.65;;;;;;;18.62;68.47;99005.16;4982207;28;20062;-58
2022/12/18 12:51:57;;;;;;;;;;;;;;;18.59;68.54;99009.19;4637706;28;10000107;-60
2022/12/18 12:54:47;;;;;;;212.68;109.35;;;;;;;18.35;70.02;99008.75;4981096;28;20431;-59
2022/12/18 12:57:45;;;;;;;222.88;111.55;;;;;;;18.33;69.39;99010.91;4981401;28;20042;-60
2022/12/18 13:00:43;;;;;;;221.60;112.60;;;;;;;18.16;70.13;99009.09;4976721;28;20051;-57
2022/12/18 13:03:56;;;;;;;214.82;115.13;;;;;;;18.11;70.94;99017.19;4971448;28;20038;-59